Latest Weather Observations for Portland Harbour

IDV60801

Issued at 10:42 pm EST Monday 6 July 2020 (issued every 10 minutes, with the page automatically refreshed every 10 minutes)

About weather observations | Map of weather stations | Latest weather observations for VIC | Other Formats
Station Details ID: 090192 Name: PORTLAND NTC AWS Lat: -38.34 Lon: 141.61 Height: 0.0 m
Data from the previous 72 hours. | See also: Recent months for locations in Victoria
Date/Time
EST
Temp
°C
App
Temp
°C
Dew
Point
°C
Rel
Hum
%
Delta-T
°C
Wind Press
QNH
hPa
Press
MSL
hPa
Rain since
9am
mm
Dir  Spd
km/h
Gust
km/h
Spd
kts
Gust
kts
06/10:30pm 11.2 - - - - SW 9 13 5 7 1032.8 1032.8 -
06/10:00pm 11.2 - - - - WSW 13 19 7 10 1032.8 1032.8 -
06/09:30pm 12.4 - - - - SW 9 15 5 8 1032.7 1032.7 -
06/09:00pm 11.7 - - - - W 4 7 2 4 1032.8 1032.8 -
06/08:30pm 12.5 - - - - S 7 13 4 7 1033.0 1033.0 -
06/08:00pm 12.0 - - - - SSW 7 11 4 6 1032.8 1032.8 -
06/07:30pm 11.8 - - - - WSW 6 7 3 4 1032.7 1032.7 -
06/07:00pm 12.1 - - - - SW 9 13 5 7 1032.5 1032.5 -
06/06:30pm 12.5 - - - - SW 9 13 5 7 1032.3 1032.3 -
06/06:00pm 12.3 - - - - WSW 11 15 6 8 1032.0 1032.0 -
06/05:30pm 12.5 - - - - WSW 7 11 4 6 1031.9 1031.9 -
06/05:00pm 12.3 - - - - WSW 13 17 7 9 1031.8 1031.8 -
06/04:30pm 12.1 - - - - SW 13 20 7 11 1031.7 1031.7 -
06/04:00pm 12.2 - - - - SW 19 28 10 15 1031.8 1031.8 -
06/03:30pm 12.2 - - - - SW 11 22 6 12 1031.7 1031.7 -
06/03:00pm 12.0 - - - - WSW 20 32 11 17 1031.6 1031.6 -
06/02:30pm 12.4 - - - - SW 9 19 5 10 1031.5 1031.5 -
06/02:00pm 12.6 - - - - WSW 20 28 11 15 1031.6 1031.6 -
06/01:30pm 12.9 - - - - SW 20 28 11 15 1031.6 1031.6 -
06/01:00pm 13.1 - - - - SW 20 26 11 14 1031.9 1031.9 -
06/12:30pm 12.9 - - - - SW 19 28 10 15 1032.2 1032.2 -
06/12:00pm 11.9 - - - - W 11 19 6 10 1032.5 1032.5 -
06/11:30am 12.8 - - - - WSW 19 28 10 15 1032.7 1032.7 -
06/11:00am 13.1 - - - - W 15 20 8 11 1032.7 1032.7 -
06/10:30am 12.5 - - - - W 15 20 8 11 1032.7 1032.7 -
06/10:00am 12.0 - - - - W 17 22 9 12 1032.6 1032.6 -
06/09:30am 12.2 - - - - WSW 7 9 4 5 1032.6 1032.6 -
06/09:00am 12.1 - - - - SW 15 26 8 14 1032.4 1032.4 -
06/08:30am 10.7 - - - - WSW 7 9 4 5 1032.2 1032.2 -
06/08:00am 10.7 - - - - WNW 9 11 5 6 1031.8 1031.8 -
06/07:30am 10.7 - - - - WNW 7 11 4 6 1031.6 1031.6 -
06/07:00am 10.7 - - - - W 11 15 6 8 1031.5 1031.5 -
06/06:30am 10.6 - - - - WSW 9 13 5 7 1031.3 1031.3 -
06/06:00am 10.8 - - - - WSW 13 19 7 10 1031.2 1031.2 -
06/05:30am 11.9 - - - - WSW 13 17 7 9 1030.8 1030.8 -
06/05:00am 12.0 - - - - SW 13 19 7 10 1030.6 1030.6 -
06/04:30am 11.3 - - - - WNW 6 7 3 4 1030.5 1030.5 -
06/04:00am 11.2 - - - - WNW 9 11 5 6 1030.5 1030.5 -
06/03:30am 11.6 - - - - W 4 6 2 3 1030.5 1030.5 -
06/03:00am 11.6 - - - - S 6 7 3 4 1030.5 1030.5 -
06/02:30am 11.5 - - - - SW 6 7 3 4 1030.6 1030.6 -
06/02:00am 11.5 - - - - WSW 6 6 3 3 1030.6 1030.6 -
06/01:30am 11.3 - - - - W 9 13 5 7 1030.5 1030.5 -
06/01:00am 11.7 - - - - SW 6 6 3 3 1030.4 1030.4 -
06/12:30am 11.8 - - - - SW 6 7 3 4 1030.6 1030.6 -
06/12:00am 11.9 - - - - SW 7 9 4 5 1030.7 1030.7 -
 
Date/Time
EST
Temp
°C
App
Temp
°C
Dew
Point
°C
Rel
Hum
%
Delta-T
°C
Wind Press
QNH
hPa
Press
MSL
hPa
Rain since
9am
mm
Dir  Spd
km/h
Gust
km/h
Spd
kts
Gust
kts
05/11:30pm 12.2 - - - - SSW 11 13 6 7 1030.7 1030.7 -
05/11:00pm 12.5 - - - - SSW 11 15 6 8 1030.7 1030.7 -
05/10:30pm 12.4 - - - - SSW 9 11 5 6 1030.5 1030.5 -
05/10:00pm 12.3 - - - - S 11 15 6 8 1030.4 1030.4 -
05/09:30pm 11.9 - - - - SSW 9 13 5 7 1030.3 1030.3 -
05/09:00pm 11.6 - - - - WSW 7 9 4 5 1030.2 1030.2 -
05/08:30pm 11.6 - - - - WSW 7 7 4 4 1029.9 1029.9 -
05/08:00pm 12.0 - - - - WSW 6 7 3 4 1029.7 1029.7 -
05/07:30pm 11.6 - - - - SW 6 7 3 4 1029.7 1029.7 -
05/07:00pm 11.9 - - - - WSW 4 6 2 3 1029.6 1029.6 -
05/06:30pm 11.7 - - - - SW 6 9 3 5 1029.4 1029.4 -
05/06:00pm 11.8 - - - - SW 7 15 4 8 1029.2 1029.2 -
05/05:30pm 11.7 - - - - S 13 20 7 11 1029.1 1029.1 -
05/05:00pm 11.9 - - - - SSW 9 13 5 7 1028.9 1028.9 -
05/04:30pm 11.9 - - - - SW 11 20 6 11 1028.8 1028.8 -
05/04:00pm 11.7 - - - - SSW 20 28 11 15 1028.7 1028.7 -
05/03:30pm 12.0 - - - - SSW 17 24 9 13 1028.5 1028.5 -
05/03:00pm 12.1 - - - - SSW 20 28 11 15 1028.4 1028.4 -
05/02:30pm 11.6 - - - - SW 13 19 7 10 1028.4 1028.4 -
05/02:00pm 11.5 - - - - S 24 32 13 17 1028.3 1028.3 -
05/01:30pm 11.3 - - - - SSW 24 39 13 21 1028.4 1028.4 -
05/01:00pm 11.5 - - - - SSW 19 28 10 15 1028.8 1028.8 -
05/12:30pm 11.5 - - - - SSW 22 32 12 17 1029.2 1029.2 -
05/12:00pm 11.3 - - - - WSW 17 26 9 14 1029.4 1029.4 -
05/11:30am 11.1 - - - - SSW 22 35 12 19 1029.8 1029.8 -
05/11:00am 11.1 - - - - SSW 15 22 8 12 1029.8 1029.8 -
05/10:30am 11.3 - - - - SW 20 32 11 17 1029.8 1029.8 -
05/10:00am 11.2 - - - - SSW 15 22 8 12 1029.6 1029.6 -
05/09:30am 11.4 - - - - SW 13 20 7 11 1029.1 1029.1 -
05/09:00am 11.0 - - - - SW 20 32 11 17 1028.7 1028.7 -
05/08:30am 10.7 - - - - SSW 11 15 6 8 1028.6 1028.6 -
05/08:00am 10.5 - - - - SW 15 20 8 11 1028.3 1028.3 -
05/07:30am 10.8 - - - - WSW 13 19 7 10 1028.0 1028.0 -
05/07:00am 11.4 - - - - SW 15 22 8 12 1027.8 1027.8 -
05/06:30am 11.3 - - - - SW 11 19 6 10 1027.3 1027.3 -
05/06:00am 11.1 - - - - SW 13 19 7 10 1027.2 1027.2 -
05/05:30am 11.5 - - - - SW 15 24 8 13 1027.2 1027.2 -
05/05:00am 11.3 - - - - SW 11 15 6 8 1027.0 1027.0 -
05/04:30am 11.5 - - - - SW 15 20 8 11 1027.0 1027.0 -
05/04:00am 11.2 - - - - SW 11 19 6 10 1027.0 1027.0 -
05/03:30am 11.2 - - - - SW 13 19 7 10 1027.0 1027.0 -
05/03:00am 10.7 - - - - SW 11 17 6 9 1027.2 1027.2 -
05/02:30am 10.4 - - - - SW 9 15 5 8 1027.2 1027.2 -
05/02:00am 11.0 - - - - SW 13 19 7 10 1027.2 1027.2 -
05/01:30am 11.3 - - - - SW 15 24 8 13 1027.0 1027.0 -
05/01:00am 11.0 - - - - SW 20 30 11 16 1027.1 1027.1 -
05/12:30am 11.4 - - - - WSW 15 24 8 13 1027.2 1027.2 -
05/12:00am 11.9 - - - - SW 19 28 10 15 1027.2 1027.2 -
 
Date/Time
EST
Temp
°C
App
Temp
°C
Dew
Point
°C
Rel
Hum
%
Delta-T
°C
Wind Press
QNH
hPa
Press
MSL
hPa
Rain since
9am
mm
Dir  Spd
km/h
Gust
km/h
Spd
kts
Gust
kts
04/11:30pm 12.0 - - - - SW 11 17 6 9 1027.2 1027.2 -
04/11:00pm 11.7 - - - - SW 11 19 6 10 1027.4 1027.4 -
04/10:30pm 11.5 - - - - SW 9 13 5 7 1027.3 1027.3 -
04/10:00pm 11.9 - - - - WSW 13 19 7 10 1027.4 1027.4 -
04/09:30pm 11.7 - - - - WSW 20 30 11 16 1027.1 1027.1 -
04/09:00pm 11.5 - - - - SW 17 22 9 12 1027.1 1027.1 -
04/08:30pm 11.9 - - - - SW 17 28 9 15 1027.0 1027.0 -
04/08:00pm 11.9 - - - - SW 19 26 10 14 1027.0 1027.0 -
04/07:30pm 11.7 - - - - SW 20 28 11 15 1026.7 1026.7 -
04/07:00pm 11.8 - - - - SW 17 24 9 13 1026.5 1026.5 -
04/06:30pm 11.9 - - - - SW 20 30 11 16 1026.6 1026.6 -
04/06:00pm 11.9 - - - - SW 17 26 9 14 1026.5 1026.5 -
04/05:30pm 12.3 - - - - SW 20 28 11 15 1026.2 1026.2 -
04/05:00pm 12.4 - - - - SW 20 28 11 15 1026.0 1026.0 -
04/04:30pm 12.4 - - - - SW 22 30 12 16 1025.8 1025.8 -
04/04:00pm 12.4 - - - - SW 20 28 11 15 1025.8 1025.8 -
04/03:30pm 12.6 - - - - SW 22 33 12 18 1025.6 1025.6 -
04/03:00pm 12.5 - - - - SW 26 35 14 19 1025.5 1025.5 -
04/02:30pm 12.2 - - - - SW 28 41 15 22 1025.4 1025.4 -
04/02:00pm 12.4 - - - - SW 26 37 14 20 1025.5 1025.5 -
04/01:30pm 13.0 - - - - SW 26 37 14 20 1025.4 1025.4 -
04/01:00pm 12.9 - - - - SW 22 33 12 18 1025.5 1025.5 -
04/12:30pm 12.4 - - - - SW 28 43 15 23 1025.8 1025.8 -
04/12:00pm 13.5 - - - - SW 24 37 13 20 1026.1 1026.1 -
04/11:30am 12.9 - - - - SW 20 33 11 18 1026.4 1026.4 -
04/11:00am 12.6 - - - - SW 28 43 15 23 1026.5 1026.5 -
04/10:30am 13.5 - - - - SW 24 35 13 19 1026.0 1026.0 -
04/10:00am 12.9 - - - - SW 17 26 9 14 1025.8 1025.8 -
04/09:30am 12.3 - - - - SW 17 24 9 13 1025.6 1025.6 -
04/09:00am 11.2 - - - - SW 19 32 10 17 1025.2 1025.2 -
04/08:30am 11.7 - - - - SW 19 26 10 14 1024.8 1024.8 -
04/08:00am 12.7 - - - - WSW 19 24 10 13 1024.4 1024.4 -
04/07:30am 12.5 - - - - WSW 22 32 12 17 1024.2 1024.2 -
04/07:00am 12.4 - - - - WSW 19 28 10 15 1024.0 1024.0 -
04/06:30am 11.4 - - - - WSW 15 20 8 11 1023.9 1023.9 -
04/06:00am 11.4 - - - - W 13 20 7 11 1023.8 1023.8 -
04/05:30am 11.5 - - - - W 17 26 9 14 1023.9 1023.9 -
04/05:00am 11.8 - - - - WSW 20 32 11 17 1024.0 1024.0 -
04/04:30am 12.0 - - - - WSW 19 30 10 16 1024.1 1024.1 -
04/04:00am 11.4 - - - - WSW 15 20 8 11 1024.1 1024.1 -
04/03:30am 11.6 - - - - WSW 15 22 8 12 1024.3 1024.3 -
04/03:00am 11.1 - - - - WSW 15 20 8 11 1024.5 1024.5 -
04/02:30am 10.6 - - - - WSW 11 17 6 9 1024.7 1024.7 -
04/02:00am 10.1 - - - - WSW 9 13 5 7 1024.6 1024.6 -
04/01:30am 10.1 - - - - SW 13 19 7 10 1024.8 1024.8 -
04/01:00am 9.8 - - - - WSW 11 15 6 8 1024.9 1024.9 -
04/12:30am 9.7 - - - - WSW 19 30 10 16 1025.1 1025.1 -
04/12:00am 9.4 - - - - W 15 22 8 12 1025.0 1025.0 -
 
Date/Time
EST
Temp
°C
App
Temp
°C
Dew
Point
°C
Rel
Hum
%
Delta-T
°C
Wind Press
QNH
hPa
Press
MSL
hPa
Rain since
9am
mm
Dir  Spd
km/h
Gust
km/h
Spd
kts
Gust
kts
03/11:30pm 9.3 - - - - WSW 17 26 9 14 1025.1 1025.1 -
03/11:00pm 9.8 - - - - WSW 13 19 7 10 1024.9 1024.9 -
03/10:45pm 10.0 - - - - SW 28 39 15 21 1025.1 1025.1 -

Other formats

Comma delimited format used in spreadsheet applications
http://www.bom.gov.au/fwo/IDV60801/IDV60801.95826.axf

JavaScript Object Notation format (JSON) in row-major order
http://www.bom.gov.au/fwo/IDV60801/IDV60801.95826.json

Data quality

Most of these data are generated automatically and are frequently updated. Quality checks on data are not normally performed. It is possible for incorrect values to appear. Refer to information at About Latest Weather Observations and please check the disclaimer before using these data.